createdAt,value
2019-06-26T00:00:17.047Z,53.40
2019-06-26T00:02:46.173Z,54.00
2019-06-26T00:05:15.199Z,54.00
2019-06-26T00:07:44.338Z,53.90
2019-06-26T00:10:13.301Z,53.30
2019-06-26T00:12:42.308Z,53.90
2019-06-26T00:15:11.201Z,53.20
2019-06-26T00:17:40.334Z,54.30
2019-06-26T00:20:09.275Z,53.90
2019-06-26T00:22:40.212Z,54.20
2019-06-26T00:25:09.076Z,54.10
2019-06-26T00:27:38.036Z,54.20
2019-06-26T00:30:07.693Z,54.40
2019-06-26T00:32:36.711Z,54.60
2019-06-26T00:35:06.423Z,54.70
2019-06-26T00:37:35.442Z,54.90
2019-06-26T00:40:08.183Z,55.10
2019-06-26T00:42:37.157Z,55.90
2019-06-26T00:45:07.021Z,55.40
2019-06-26T00:50:06.862Z,55.20
2019-06-26T00:52:35.927Z,56.00
2019-06-26T00:55:06.289Z,56.30
2019-06-26T00:57:35.312Z,56.80
2019-06-26T01:00:09.909Z,56.90
2019-06-26T01:02:38.904Z,56.90
2019-06-26T01:05:09.696Z,57.00
2019-06-26T01:07:38.909Z,56.90
2019-06-26T01:10:08.012Z,57.10
2019-06-26T01:12:37.160Z,56.70
2019-06-26T01:15:06.674Z,57.40
2019-06-26T01:17:35.611Z,57.70
2019-06-26T01:20:07.096Z,57.90
2019-06-26T01:22:36.223Z,58.10
2019-06-26T01:25:05.642Z,58.20
2019-06-26T01:27:34.712Z,58.50
2019-06-26T01:30:05.045Z,58.60
2019-06-26T01:32:34.202Z,58.90
2019-06-26T01:35:03.654Z,59.00
2019-06-26T01:37:32.682Z,59.30
2019-06-26T01:40:01.640Z,60.20
2019-06-26T01:42:30.427Z,59.20
2019-06-26T01:44:59.393Z,59.90
2019-06-26T01:47:28.494Z,60.00
2019-06-26T01:49:57.663Z,60.30
2019-06-26T01:52:26.766Z,60.50
2019-06-26T01:54:55.855Z,60.20
2019-06-26T01:57:24.945Z,61.00
2019-06-26T01:59:53.963Z,61.30
2019-06-26T02:02:22.961Z,61.50
2019-06-26T02:04:51.812Z,61.50
2019-06-26T02:07:20.940Z,62.00
2019-06-26T02:09:49.779Z,62.20
2019-06-26T02:12:18.823Z,61.40
2019-06-26T02:14:47.722Z,62.10
2019-06-26T02:17:16.693Z,62.10
2019-06-26T02:19:46.154Z,62.40
2019-06-26T02:22:15.324Z,61.80
2019-06-26T02:24:44.270Z,62.80
2019-06-26T02:27:13.374Z,62.40
2019-06-26T02:29:42.365Z,62.60
2019-06-26T02:32:11.450Z,63.30
2019-06-26T02:34:40.565Z,62.90
2019-06-26T02:37:09.513Z,63.60
2019-06-26T02:42:07.498Z,63.40
2019-06-26T02:44:52.533Z,64.00
2019-06-26T02:47:19.715Z,64.20
2019-06-26T02:49:37.991Z,64.00
2019-06-26T02:52:06.903Z,65.00
2019-06-26T02:54:35.988Z,64.60
2019-06-26T02:57:04.963Z,65.20
2019-06-26T02:59:34.000Z,65.80
2019-06-26T03:02:03.070Z,65.20
2019-06-26T03:04:31.951Z,65.60
2019-06-26T03:07:00.864Z,65.40
2019-06-26T03:09:29.981Z,65.50
2019-06-26T03:11:58.895Z,64.80
2019-06-26T03:14:27.888Z,65.30
2019-06-26T03:16:56.817Z,65.30
2019-06-26T03:19:25.931Z,65.00
2019-06-26T03:21:54.948Z,65.00
2019-06-26T03:24:24.088Z,65.20
2019-06-26T03:26:53.019Z,64.60
2019-06-26T03:29:22.072Z,65.40
2019-06-26T03:31:51.224Z,64.80
2019-06-26T03:34:20.255Z,65.70
2019-06-26T03:36:49.224Z,64.70
2019-06-26T03:39:18.171Z,64.80
2019-06-26T03:41:47.257Z,65.00
2019-06-26T03:44:16.437Z,65.60
2019-06-26T03:46:45.319Z,65.10
2019-06-26T03:49:14.201Z,65.20
2019-06-26T03:51:43.192Z,65.90
2019-06-26T03:54:12.186Z,66.10
2019-06-26T03:56:40.932Z,65.50
2019-06-26T03:59:10.078Z,66.20
2019-06-26T04:01:39.111Z,65.60
2019-06-26T04:04:08.138Z,65.50
2019-06-26T04:06:37.215Z,66.60
2019-06-26T04:09:06.864Z,66.60
2019-06-26T04:11:35.759Z,66.10
2019-06-26T04:14:04.650Z,66.90
2019-06-26T04:16:33.677Z,66.70
2019-06-26T04:19:02.791Z,66.70
2019-06-26T04:21:31.809Z,66.00
2019-06-26T04:24:00.632Z,66.60
2019-06-26T04:26:29.676Z,65.90
2019-06-26T04:28:58.851Z,66.40
2019-06-26T04:31:27.721Z,66.50
2019-06-26T04:33:57.041Z,65.60
2019-06-26T04:36:26.238Z,66.10
2019-06-26T04:38:55.291Z,66.00
2019-06-26T04:41:24.338Z,65.80
2019-06-26T04:43:53.345Z,66.00
2019-06-26T04:46:22.103Z,65.20
2019-06-26T04:48:51.155Z,65.90
2019-06-26T04:51:20.158Z,65.20
2019-06-26T04:53:49.447Z,65.80
2019-06-26T04:56:18.403Z,65.20
2019-06-26T04:58:47.292Z,66.00
2019-06-26T05:01:16.327Z,65.90
2019-06-26T05:03:45.388Z,65.20
2019-06-26T05:06:14.458Z,65.90
2019-06-26T05:08:43.415Z,65.90
2019-06-26T05:11:12.975Z,65.70
2019-06-26T05:13:42.176Z,65.80
2019-06-26T05:16:15.622Z,65.80
2019-06-26T05:18:41.859Z,65.80
2019-06-26T05:21:10.992Z,65.10
2019-06-26T05:23:40.160Z,65.50
2019-06-26T05:26:09.277Z,65.40
2019-06-26T05:28:38.293Z,64.90
2019-06-26T05:31:07.103Z,65.30
2019-06-26T05:33:36.096Z,64.80
2019-06-26T05:36:04.850Z,65.40
2019-06-26T05:38:33.875Z,65.90
2019-06-26T05:41:02.760Z,65.50
2019-06-26T05:43:31.758Z,65.40
2019-06-26T05:46:00.969Z,65.50
2019-06-26T05:48:30.200Z,65.40
2019-06-26T05:50:59.048Z,64.70
2019-06-26T05:53:28.038Z,65.40
2019-06-26T05:55:56.927Z,64.70
2019-06-26T05:58:25.831Z,64.40
2019-06-26T06:00:54.933Z,65.00
2019-06-26T06:03:24.098Z,64.70
2019-06-26T06:05:53.055Z,63.80
2019-06-26T06:08:21.943Z,64.40
2019-06-26T06:10:50.914Z,64.20
2019-06-26T06:13:20.232Z,64.20
2019-06-26T06:15:49.275Z,63.80
2019-06-26T06:18:18.163Z,62.70
2019-06-26T06:20:47.074Z,62.50
2019-06-26T06:23:16.074Z,62.90
2019-06-26T06:25:45.070Z,62.80
2019-06-26T06:28:14.129Z,62.80
2019-06-26T06:30:43.226Z,62.90
2019-06-26T06:33:12.407Z,63.00
2019-06-26T06:35:41.394Z,63.00
2019-06-26T06:38:10.539Z,63.00
2019-06-26T06:40:39.358Z,63.10
2019-06-26T06:43:08.395Z,63.10
2019-06-26T06:45:39.074Z,63.10
2019-06-26T06:48:08.401Z,63.30
2019-06-26T06:50:37.337Z,63.20
2019-06-26T06:53:06.242Z,62.50
2019-06-26T06:55:35.369Z,63.00
2019-06-26T06:58:04.326Z,62.70
2019-06-26T07:00:33.223Z,62.50
2019-06-26T07:03:02.446Z,61.50
2019-06-26T07:05:31.431Z,61.70
2019-06-26T07:08:00.534Z,61.40
2019-06-26T07:10:29.322Z,61.30
2019-06-26T07:12:58.698Z,60.90
2019-06-26T07:15:27.598Z,60.90
2019-06-26T07:17:56.588Z,59.70
2019-06-26T07:20:25.689Z,60.60
2019-06-26T07:22:54.557Z,60.30
2019-06-26T07:25:23.462Z,60.50
2019-06-26T07:27:52.487Z,60.00
2019-06-26T07:30:21.383Z,60.10
2019-06-26T07:32:52.918Z,59.90
2019-06-26T07:35:21.830Z,59.70
2019-06-26T07:37:51.127Z,59.20
2019-06-26T07:40:20.429Z,59.00
2019-06-26T07:42:49.434Z,59.40
2019-06-26T07:45:18.390Z,58.70
2019-06-26T07:47:47.585Z,59.30
2019-06-26T07:50:17.367Z,59.20
2019-06-26T07:52:46.462Z,59.30
2019-06-26T07:55:15.660Z,59.30
2019-06-26T07:57:44.733Z,59.00
2019-06-26T08:00:13.889Z,58.90
2019-06-26T08:02:42.833Z,58.80
2019-06-26T08:05:11.772Z,58.80
2019-06-26T08:07:40.798Z,58.00
2019-06-26T08:10:09.802Z,58.30
2019-06-26T08:12:38.823Z,57.90
2019-06-26T08:15:07.750Z,57.40
2019-06-26T08:17:36.806Z,57.50
2019-06-26T08:20:05.881Z,57.20
2019-06-26T08:22:34.805Z,57.10
2019-06-26T08:25:06.380Z,56.80
2019-06-26T08:27:35.232Z,56.60
2019-06-26T08:30:06.087Z,55.80
2019-06-26T08:32:34.877Z,56.50
2019-06-26T08:35:05.217Z,56.20
2019-06-26T08:37:34.120Z,56.10
2019-06-26T08:40:03.567Z,55.70
2019-06-26T08:42:33.021Z,55.70
2019-06-26T08:45:03.484Z,55.40
2019-06-26T08:47:32.499Z,55.00
2019-06-26T08:50:01.515Z,54.70
2019-06-26T08:52:30.486Z,54.70
2019-06-26T08:54:59.455Z,54.50
2019-06-26T08:57:28.381Z,54.20
2019-06-26T08:59:57.402Z,54.70
2019-06-26T09:02:26.282Z,54.00
2019-06-26T09:04:55.300Z,54.00
2019-06-26T09:07:43.420Z,53.80
2019-06-26T09:10:12.471Z,52.70
2019-06-26T09:12:41.749Z,53.90
2019-06-26T09:15:18.338Z,53.30
2019-06-26T09:17:49.966Z,51.80
2019-06-26T09:20:39.263Z,52.00
2019-06-26T09:23:08.182Z,52.60
2019-06-26T09:25:37.173Z,52.10
2019-06-26T09:28:08.870Z,51.90
2019-06-26T09:30:37.877Z,51.70
2019-06-26T09:33:07.140Z,51.80
2019-06-26T09:35:36.199Z,51.70
2019-06-26T09:38:05.087Z,50.50
2019-06-26T09:40:34.133Z,50.00
2019-06-26T09:43:03.422Z,49.20
2019-06-26T09:45:32.431Z,48.80
2019-06-26T09:48:01.538Z,48.00
2019-06-26T09:50:30.466Z,47.60
2019-06-26T09:52:59.564Z,46.50
2019-06-26T09:55:28.482Z,46.30
2019-06-26T09:57:57.664Z,45.60
2019-06-26T10:00:26.751Z,45.40
2019-06-26T10:02:55.815Z,43.90
2019-06-26T10:05:24.809Z,44.30
2019-06-26T10:07:53.867Z,44.10
2019-06-26T10:10:22.786Z,43.20
2019-06-26T10:12:51.604Z,43.00
2019-06-26T10:15:20.706Z,42.60
2019-06-26T10:17:49.751Z,42.30
2019-06-26T10:20:18.938Z,41.50
2019-06-26T10:22:47.816Z,41.30
2019-06-26T10:25:16.795Z,41.00
2019-06-26T10:27:45.822Z,40.80
2019-06-26T10:30:14.749Z,40.70
2019-06-26T10:32:43.979Z,40.10
2019-06-26T10:35:12.897Z,40.30
2019-06-26T10:37:41.864Z,40.40
2019-06-26T10:40:10.941Z,40.50
2019-06-26T10:42:40.118Z,40.40
2019-06-26T10:45:09.685Z,40.40
2019-06-26T10:47:39.946Z,40.40
2019-06-26T10:50:09.131Z,40.30
2019-06-26T10:52:38.332Z,40.30
2019-06-26T10:55:07.626Z,40.60
2019-06-26T10:57:36.686Z,40.50
2019-06-26T11:00:09.096Z,41.40
2019-06-26T11:02:38.239Z,40.90
2019-06-26T11:05:08.192Z,40.80
2019-06-26T11:07:36.936Z,40.60
2019-06-26T11:10:08.644Z,40.90
2019-06-26T11:12:37.741Z,40.30
2019-06-26T11:15:09.863Z,39.90
2019-06-26T11:17:38.973Z,40.10
2019-06-26T11:20:08.524Z,39.70
2019-06-26T11:22:37.803Z,39.50
2019-06-26T11:25:10.233Z,38.90
2019-06-26T11:27:39.316Z,38.80
2019-06-26T11:30:10.019Z,38.50
2019-06-26T11:32:38.946Z,38.60
2019-06-26T11:35:07.925Z,39.00
2019-06-26T11:37:37.105Z,39.20
2019-06-26T11:40:06.641Z,38.90
2019-06-26T11:42:35.724Z,38.40
2019-06-26T11:45:06.539Z,38.40
2019-06-26T11:47:35.812Z,38.30
2019-06-26T11:50:08.378Z,37.90
2019-06-26T11:52:37.449Z,38.70
2019-06-26T11:55:07.555Z,37.70
2019-06-26T11:57:36.584Z,37.20
2019-06-26T12:00:08.343Z,36.80
2019-06-26T12:02:37.121Z,36.70
2019-06-26T12:05:07.750Z,37.00
2019-06-26T12:07:36.760Z,36.70
2019-06-26T12:10:08.211Z,36.60
2019-06-26T12:12:37.454Z,36.70
2019-06-26T12:15:06.893Z,36.80
2019-06-26T12:17:35.796Z,36.60
2019-06-26T12:20:17.814Z,36.90
2019-06-26T12:22:36.289Z,36.60
2019-06-26T12:25:05.808Z,36.80
2019-06-26T12:27:34.806Z,36.70
2019-06-26T12:30:05.346Z,36.50
2019-06-26T12:32:41.771Z,36.60
2019-06-26T12:35:06.482Z,36.80
2019-06-26T12:37:38.028Z,36.90
2019-06-26T12:40:06.970Z,37.20
2019-06-26T12:42:36.073Z,37.40
2019-06-26T12:45:09.427Z,37.20
2019-06-26T12:47:38.335Z,37.20
2019-06-26T12:50:07.603Z,37.50
2019-06-26T12:52:36.618Z,37.60
2019-06-26T12:55:08.570Z,37.60
2019-06-26T12:57:37.547Z,37.50
2019-06-26T13:00:09.041Z,38.00
2019-06-26T13:02:38.000Z,38.10
2019-06-26T13:05:07.435Z,38.00
2019-06-26T13:07:36.429Z,37.80
2019-06-26T13:10:07.656Z,37.80
2019-06-26T13:12:37.239Z,37.70
2019-06-26T13:15:09.186Z,37.50
2019-06-26T13:17:38.263Z,37.60
2019-06-26T13:20:10.002Z,37.60
2019-06-26T13:22:38.794Z,37.60
2019-06-26T13:25:08.108Z,37.20
2019-06-26T13:27:37.145Z,37.00
2019-06-26T13:30:07.374Z,36.70
2019-06-26T13:32:36.502Z,36.50
2019-06-26T13:35:07.676Z,36.60
2019-06-26T13:37:36.742Z,36.60
2019-06-26T13:40:08.667Z,36.60
2019-06-26T13:42:37.879Z,35.70
2019-06-26T13:45:07.888Z,36.40
2019-06-26T13:47:36.727Z,36.50
2019-06-26T13:50:15.820Z,36.40
2019-06-26T13:52:44.628Z,36.10
2019-06-26T13:55:13.553Z,35.90
2019-06-26T13:57:42.539Z,36.20
2019-06-26T14:00:11.780Z,35.80
2019-06-26T14:02:40.733Z,35.60
2019-06-26T14:05:09.850Z,35.90
2019-06-26T14:07:38.886Z,35.80
2019-06-26T14:10:07.938Z,35.60
2019-06-26T14:12:36.863Z,35.50
2019-06-26T14:15:07.155Z,35.20
2019-06-26T14:17:36.150Z,35.20
2019-06-26T14:20:06.523Z,35.20
2019-06-26T14:22:35.679Z,35.30
2019-06-26T14:25:09.212Z,35.80
2019-06-26T14:27:37.486Z,36.00
2019-06-26T14:30:09.190Z,36.90
2019-06-26T14:32:38.303Z,37.00
2019-06-26T14:35:07.675Z,37.30
2019-06-26T14:37:36.825Z,37.60
2019-06-26T14:40:11.959Z,37.90
2019-06-26T14:42:41.504Z,38.30
2019-06-26T14:45:10.347Z,39.10
2019-06-26T14:47:39.138Z,39.70
2019-06-26T14:50:08.223Z,39.60
2019-06-26T14:52:37.146Z,39.30
2019-06-26T14:55:06.449Z,39.10
2019-06-26T14:57:35.295Z,39.20
2019-06-26T15:00:06.499Z,39.80
2019-06-26T15:02:35.616Z,40.00
2019-06-26T15:05:06.539Z,40.20
2019-06-26T15:07:35.510Z,40.40
2019-06-26T15:10:07.259Z,40.90
2019-06-26T15:12:36.372Z,40.00
2019-06-26T15:15:06.007Z,40.10
2019-06-26T15:17:35.108Z,40.40
2019-06-26T15:20:04.911Z,40.30
2019-06-26T15:22:33.850Z,40.20
2019-06-26T15:25:02.816Z,40.10
2019-06-26T15:27:31.744Z,40.20
2019-06-26T15:30:00.740Z,40.30
2019-06-26T15:32:29.821Z,40.40
2019-06-26T15:34:58.739Z,40.50
2019-06-26T15:37:27.784Z,40.10
2019-06-26T15:39:56.716Z,40.40
2019-06-26T15:42:25.944Z,40.60
2019-06-26T15:44:55.055Z,41.10
2019-06-26T15:47:23.906Z,41.00
2019-06-26T15:49:53.046Z,41.10
2019-06-26T15:52:22.131Z,41.60
2019-06-26T15:54:51.187Z,41.50
2019-06-26T15:57:22.547Z,41.40
2019-06-26T15:59:51.813Z,41.40
2019-06-26T16:02:20.886Z,41.40
2019-06-26T16:04:50.255Z,41.60
2019-06-26T16:07:19.363Z,41.60
2019-06-26T16:09:48.551Z,41.50
2019-06-26T16:12:17.510Z,41.60
2019-06-26T16:14:46.515Z,41.60
2019-06-26T16:17:17.154Z,41.80
2019-06-26T16:19:45.944Z,41.90
2019-06-26T16:22:27.755Z,41.70
2019-06-26T16:24:45.521Z,41.80
2019-06-26T16:27:14.575Z,41.80
2019-06-26T16:29:43.586Z,41.70
2019-06-26T16:32:12.544Z,41.60
2019-06-26T16:34:41.404Z,41.60
2019-06-26T16:37:10.328Z,41.60
2019-06-26T16:39:39.304Z,41.70
2019-06-26T16:42:08.338Z,42.00
2019-06-26T16:44:37.293Z,42.20
2019-06-26T16:47:06.355Z,42.30
2019-06-26T16:49:35.350Z,42.60
2019-06-26T16:52:05.860Z,43.00
2019-06-26T16:54:34.711Z,43.10
2019-06-26T16:57:03.725Z,43.30
2019-06-26T16:59:32.711Z,43.20
2019-06-26T17:02:01.751Z,43.10
2019-06-26T17:04:30.663Z,43.10
2019-06-26T17:06:59.681Z,43.30
2019-06-26T17:09:28.809Z,43.30
2019-06-26T17:11:57.651Z,43.40
2019-06-26T17:14:26.716Z,43.50
2019-06-26T17:16:55.636Z,43.50
2019-06-26T17:19:24.455Z,43.90
2019-06-26T17:21:53.347Z,43.10
2019-06-26T17:24:22.304Z,43.30
2019-06-26T17:26:51.221Z,43.50
2019-06-26T17:29:20.154Z,43.50
2019-06-26T17:31:49.086Z,43.50
2019-06-26T17:34:18.345Z,43.30
2019-06-26T17:36:47.347Z,43.10
2019-06-26T17:39:16.293Z,43.10
2019-06-26T17:41:45.310Z,42.90
2019-06-26T17:44:14.572Z,43.00
2019-06-26T17:46:43.603Z,42.80
2019-06-26T17:49:12.452Z,42.90
2019-06-26T17:51:41.405Z,43.00
2019-06-26T17:54:10.249Z,43.10
2019-06-26T17:56:39.358Z,43.30
2019-06-26T17:59:08.363Z,43.20
2019-06-26T18:01:37.632Z,43.30
2019-06-26T18:04:06.704Z,43.30
2019-06-26T18:06:35.929Z,43.60
2019-06-26T18:09:07.759Z,43.40
2019-06-26T18:11:36.775Z,43.60
2019-06-26T18:14:05.583Z,43.60
2019-06-26T18:16:34.408Z,43.80
2019-06-26T18:19:04.352Z,43.90
2019-06-26T18:21:33.475Z,44.10
2019-06-26T18:24:02.646Z,44.20
2019-06-26T18:26:31.628Z,44.40
2019-06-26T18:29:00.702Z,44.60
2019-06-26T18:31:30.672Z,44.60
2019-06-26T18:34:00.171Z,44.70
2019-06-26T18:36:29.028Z,44.80
2019-06-26T18:38:58.124Z,45.00
2019-06-26T18:41:27.008Z,45.10
2019-06-26T18:43:55.952Z,45.30
2019-06-26T18:46:25.195Z,44.70
2019-06-26T18:48:54.275Z,45.50
2019-06-26T18:51:23.085Z,45.60
2019-06-26T18:53:53.824Z,45.80
2019-06-26T18:56:22.756Z,45.50
2019-06-26T18:58:51.716Z,46.60
2019-06-26T19:01:20.665Z,45.90
2019-06-26T19:03:49.622Z,45.90
2019-06-26T19:06:18.634Z,45.90
2019-06-26T19:08:47.632Z,45.90
2019-06-26T19:11:16.545Z,45.80
2019-06-26T19:13:45.641Z,46.20
2019-06-26T19:16:14.480Z,45.80
2019-06-26T19:18:43.510Z,45.70
2019-06-26T19:21:12.684Z,45.80
2019-06-26T19:23:41.624Z,45.30
2019-06-26T19:26:10.712Z,46.10
2019-06-26T19:28:39.842Z,45.90
2019-06-26T19:31:08.795Z,46.00
2019-06-26T19:33:37.764Z,45.90
2019-06-26T19:36:06.745Z,46.20
2019-06-26T19:38:35.745Z,46.40
2019-06-26T19:41:08.384Z,46.40
2019-06-26T19:43:35.790Z,45.80
2019-06-26T19:46:04.817Z,47.20
2019-06-26T19:48:33.875Z,46.50
2019-06-26T19:51:02.894Z,46.50
2019-06-26T19:53:31.938Z,47.20
2019-06-26T19:56:00.875Z,46.20
2019-06-26T19:58:29.942Z,46.00
2019-06-26T20:00:58.771Z,46.20
2019-06-26T20:03:27.770Z,46.20
2019-06-26T20:05:56.921Z,45.60
2019-06-26T20:08:25.914Z,46.00
2019-06-26T20:10:55.187Z,45.70
2019-06-26T20:13:24.174Z,45.60
2019-06-26T20:15:53.072Z,45.60
2019-06-26T20:18:22.246Z,45.60
2019-06-26T20:20:51.252Z,45.80
2019-06-26T20:23:20.175Z,45.70
2019-06-26T20:25:49.107Z,45.60
2019-06-26T20:28:18.228Z,44.90
2019-06-26T20:30:47.167Z,46.00
2019-06-26T20:33:16.226Z,45.00
2019-06-26T20:35:45.374Z,44.50
2019-06-26T20:38:14.398Z,44.40
2019-06-26T20:40:45.790Z,44.30
2019-06-26T20:43:13.992Z,43.80
2019-06-26T20:45:42.841Z,43.50
2019-06-26T20:48:11.836Z,44.10
2019-06-26T20:50:40.840Z,44.20
2019-06-26T20:53:09.946Z,44.40
2019-06-26T20:55:39.024Z,44.50
2019-06-26T20:58:08.039Z,44.70
2019-06-26T21:00:37.240Z,44.40
2019-06-26T21:03:06.056Z,45.20
2019-06-26T21:05:35.151Z,44.70
2019-06-26T21:08:04.258Z,45.30
2019-06-26T21:10:33.136Z,45.00
2019-06-26T21:13:02.132Z,45.70
2019-06-26T21:15:31.395Z,45.40
2019-06-26T21:18:00.461Z,46.20
2019-06-26T21:20:29.475Z,46.00
2019-06-26T21:22:58.392Z,46.20
2019-06-26T21:25:27.264Z,46.30
2019-06-26T21:27:56.424Z,46.60
2019-06-26T21:30:25.417Z,46.60
2019-06-26T21:32:54.440Z,47.10
2019-06-26T21:35:23.361Z,46.70
2019-06-26T21:37:52.275Z,47.20
2019-06-26T21:40:21.264Z,47.30
2019-06-26T21:42:50.243Z,47.30
2019-06-26T21:45:20.750Z,47.50
2019-06-26T21:47:49.899Z,47.10
2019-06-26T21:50:18.827Z,47.20
2019-06-26T21:52:47.879Z,47.30
2019-06-26T21:55:30.201Z,47.70
2019-06-26T21:57:47.401Z,48.60
2019-06-26T22:00:16.781Z,48.80
2019-06-26T22:02:45.756Z,48.30
2019-06-26T22:05:15.076Z,49.20
2019-06-26T22:07:44.039Z,48.60
2019-06-26T22:10:12.946Z,49.30
2019-06-26T22:12:41.781Z,49.30
2019-06-26T22:15:10.994Z,48.70
2019-06-26T22:17:40.001Z,49.00
2019-06-26T22:20:12.542Z,49.20
2019-06-26T22:22:39.513Z,49.10
2019-06-26T22:25:08.502Z,49.30
2019-06-26T22:27:37.417Z,49.20
2019-06-26T22:30:08.055Z,49.30
2019-06-26T22:32:37.136Z,50.20
2019-06-26T22:35:07.551Z,49.70
2019-06-26T22:37:36.681Z,50.60
2019-06-26T22:40:08.559Z,50.20
2019-06-26T22:42:37.364Z,50.40
2019-06-26T22:45:06.350Z,50.30
2019-06-26T22:47:35.459Z,50.20
2019-06-26T22:50:06.385Z,50.20
2019-06-26T22:52:35.551Z,50.90
2019-06-26T22:55:05.845Z,50.30
2019-06-26T22:57:34.687Z,50.40
2019-06-26T23:00:04.873Z,50.60
2019-06-26T23:02:33.764Z,51.20
2019-06-26T23:05:02.703Z,51.30
2019-06-26T23:07:31.672Z,50.90
2019-06-26T23:10:00.666Z,51.20
2019-06-26T23:12:29.701Z,51.00
2019-06-26T23:14:58.823Z,51.80
2019-06-26T23:17:27.832Z,51.30
2019-06-26T23:19:56.860Z,51.50
2019-06-26T23:22:25.847Z,51.60
2019-06-26T23:24:54.840Z,52.20
2019-06-26T23:27:23.987Z,51.60
2019-06-26T23:29:53.334Z,51.60
2019-06-26T23:32:22.383Z,51.80
2019-06-26T23:34:51.407Z,52.80
2019-06-26T23:37:20.408Z,53.00
2019-06-26T23:39:49.200Z,52.60
2019-06-26T23:42:18.454Z,53.20
2019-06-26T23:44:47.460Z,52.60
2019-06-26T23:47:16.387Z,53.50
2019-06-26T23:49:45.597Z,53.00
2019-06-26T23:52:14.718Z,53.10
2019-06-26T23:54:43.591Z,53.50
2019-06-26T23:57:12.664Z,53.10
2019-06-26T23:59:41.678Z,53.80
